createdAt,value
2019-05-30T00:00:23.841Z,58.45
2019-05-30T00:02:52.044Z,58.50
2019-05-30T00:05:20.272Z,58.71
2019-05-30T00:07:48.552Z,58.89
2019-05-30T00:10:16.770Z,58.70
2019-05-30T00:12:44.983Z,58.83
2019-05-30T00:15:13.205Z,58.83
2019-05-30T00:17:41.454Z,58.99
2019-05-30T00:20:09.677Z,59.09
2019-05-30T00:22:37.905Z,59.18
2019-05-30T00:25:06.772Z,59.23
2019-05-30T00:27:34.985Z,59.28
2019-05-30T00:30:03.584Z,59.37
2019-05-30T00:32:31.866Z,59.71
2019-05-30T00:35:00.136Z,59.71
2019-05-30T00:37:28.349Z,59.68
2019-05-30T00:39:57.751Z,59.56
2019-05-30T00:42:26.184Z,59.51
2019-05-30T00:44:54.384Z,59.39
2019-05-30T00:47:22.595Z,59.34
2019-05-30T00:49:51.168Z,59.28
2019-05-30T00:52:19.988Z,59.33
2019-05-30T00:54:48.227Z,59.41
2019-05-30T00:57:16.433Z,59.50
2019-05-30T00:59:44.633Z,59.68
2019-05-30T01:02:12.844Z,59.75
2019-05-30T01:04:41.124Z,59.83
2019-05-30T01:07:09.314Z,59.87
2019-05-30T01:09:37.509Z,59.91
2019-05-30T01:12:05.721Z,60.09
2019-05-30T01:14:33.930Z,60.14
2019-05-30T01:17:03.150Z,60.17
2019-05-30T01:19:31.436Z,60.33
2019-05-30T01:21:59.645Z,60.38
2019-05-30T01:24:27.844Z,60.40
2019-05-30T01:26:57.133Z,60.54
2019-05-30T01:29:25.359Z,60.70
2019-05-30T01:31:53.579Z,60.92
2019-05-30T01:34:21.779Z,61.24
2019-05-30T01:36:49.993Z,61.43
2019-05-30T01:39:18.195Z,61.71
2019-05-30T01:41:46.471Z,62.01
2019-05-30T01:44:14.680Z,62.22
2019-05-30T01:46:42.891Z,62.41
2019-05-30T01:49:11.190Z,62.52
2019-05-30T01:51:39.383Z,62.60
2019-05-30T01:54:08.687Z,62.83
2019-05-30T01:56:37.111Z,63.11
2019-05-30T01:59:05.332Z,63.22
2019-05-30T02:01:33.539Z,63.31
2019-05-30T02:04:03.131Z,63.43
2019-05-30T02:06:31.557Z,63.59
2019-05-30T02:09:00.902Z,63.66
2019-05-30T02:11:29.366Z,63.66
2019-05-30T02:13:57.566Z,63.51
2019-05-30T02:16:25.830Z,63.63
2019-05-30T02:18:54.039Z,63.53
2019-05-30T02:21:22.273Z,63.51
2019-05-30T02:23:50.537Z,63.53
2019-05-30T02:26:18.744Z,63.53
2019-05-30T02:28:46.941Z,63.58
2019-05-30T02:31:15.271Z,63.50
2019-05-30T02:33:43.512Z,63.43
2019-05-30T02:36:12.640Z,63.32
2019-05-30T02:38:41.091Z,63.23
2019-05-30T02:41:09.999Z,63.17
2019-05-30T02:43:39.285Z,63.07
2019-05-30T02:46:08.485Z,62.94
2019-05-30T02:48:54.752Z,62.76
2019-05-30T02:51:08.497Z,62.74
2019-05-30T02:53:37.371Z,62.68
2019-05-30T02:56:05.985Z,62.62
2019-05-30T02:58:35.513Z,62.55
2019-05-30T03:01:04.460Z,62.49
2019-05-30T03:03:33.637Z,62.41
2019-05-30T03:06:03.382Z,62.27
2019-05-30T03:08:31.765Z,62.04
2019-05-30T03:11:02.204Z,61.78
2019-05-30T03:13:29.906Z,61.61
2019-05-30T03:15:58.169Z,61.44
2019-05-30T03:18:26.366Z,61.36
2019-05-30T03:20:54.581Z,61.16
2019-05-30T03:23:22.774Z,60.90
2019-05-30T03:25:50.973Z,60.76
2019-05-30T03:28:19.345Z,60.51
2019-05-30T03:30:47.585Z,60.02
2019-05-30T03:33:36.506Z,59.41
2019-05-30T03:35:45.797Z,58.90
2019-05-30T03:38:15.661Z,58.19
2019-05-30T03:40:43.983Z,57.36
2019-05-30T03:43:13.837Z,56.32
2019-05-30T03:45:42.175Z,55.96
2019-05-30T03:48:12.314Z,56.65
2019-05-30T03:50:43.685Z,57.57
2019-05-30T03:53:14.367Z,58.19
2019-05-30T03:55:41.912Z,58.65
2019-05-30T03:58:46.605Z,58.98
2019-05-30T04:01:15.815Z,59.20
2019-05-30T04:03:59.332Z,59.42
2019-05-30T04:06:32.256Z,59.39
2019-05-30T04:09:04.717Z,59.50
2019-05-30T04:11:41.905Z,59.50
2019-05-30T04:14:11.135Z,59.53
2019-05-30T04:16:40.031Z,59.53
2019-05-30T04:19:09.837Z,59.57
2019-05-30T04:21:38.248Z,59.56
2019-05-30T04:24:07.284Z,59.64
2019-05-30T04:26:35.708Z,59.60
2019-05-30T04:29:03.932Z,59.64
2019-05-30T04:31:32.128Z,59.53
2019-05-30T04:34:00.341Z,59.46
2019-05-30T04:36:28.531Z,59.43
2019-05-30T04:38:56.727Z,59.32
2019-05-30T04:41:24.960Z,59.24
2019-05-30T04:43:53.176Z,59.09
2019-05-30T04:46:22.054Z,58.98
2019-05-30T04:48:50.421Z,58.85
2019-05-30T04:51:21.256Z,58.64
2019-05-30T04:53:48.560Z,58.54
2019-05-30T04:56:17.597Z,58.38
2019-05-30T04:58:46.733Z,58.34
2019-05-30T05:01:15.478Z,58.35
2019-05-30T05:03:46.530Z,58.30
2019-05-30T05:06:15.674Z,58.32
2019-05-30T05:08:44.064Z,58.35
2019-05-30T05:11:15.061Z,58.35
2019-05-30T05:13:42.213Z,58.36
2019-05-30T05:16:24.522Z,58.26
2019-05-30T05:18:40.367Z,58.16
2019-05-30T05:21:08.567Z,58.19
2019-05-30T05:23:36.780Z,58.11
2019-05-30T05:26:04.989Z,58.10
2019-05-30T05:28:33.215Z,58.02
2019-05-30T05:31:01.449Z,57.80
2019-05-30T05:33:29.668Z,57.61
2019-05-30T05:35:57.911Z,57.41
2019-05-30T05:38:26.105Z,57.21
2019-05-30T05:40:54.311Z,56.95
2019-05-30T05:43:22.543Z,56.66
2019-05-30T05:45:50.783Z,56.38
2019-05-30T05:48:19.069Z,56.09
2019-05-30T05:50:47.273Z,55.91
2019-05-30T05:53:16.596Z,55.74
2019-05-30T05:55:45.096Z,55.56
2019-05-30T05:58:13.301Z,55.41
2019-05-30T06:00:41.511Z,55.30
2019-05-30T06:03:09.709Z,55.23
2019-05-30T06:05:52.194Z,55.15
2019-05-30T06:08:08.042Z,55.07
2019-05-30T06:10:36.790Z,55.00
2019-05-30T06:13:04.953Z,54.93
2019-05-30T06:15:33.163Z,54.85
2019-05-30T06:18:01.567Z,54.69
2019-05-30T06:20:29.780Z,54.60
2019-05-30T06:22:57.985Z,54.42
2019-05-30T06:25:31.820Z,54.26
2019-05-30T06:27:56.149Z,54.08
2019-05-30T06:30:24.553Z,53.82
2019-05-30T06:32:52.754Z,53.57
2019-05-30T06:35:21.455Z,53.31
2019-05-30T06:37:49.849Z,53.15
2019-05-30T06:40:19.373Z,53.00
2019-05-30T06:42:47.737Z,52.86
2019-05-30T06:45:15.945Z,52.82
2019-05-30T06:47:44.150Z,52.78
2019-05-30T06:50:12.384Z,52.77
2019-05-30T06:52:40.588Z,52.75
2019-05-30T06:55:08.783Z,52.66
2019-05-30T06:57:36.992Z,52.61
2019-05-30T07:00:08.403Z,52.66
2019-05-30T07:02:36.991Z,52.66
2019-05-30T07:05:07.672Z,52.34
2019-05-30T07:07:36.265Z,52.40
2019-05-30T07:10:06.266Z,52.40
2019-05-30T07:12:34.477Z,52.55
2019-05-30T07:15:02.871Z,52.37
2019-05-30T07:17:31.495Z,52.20
2019-05-30T07:19:59.750Z,52.01
2019-05-30T07:22:27.965Z,51.91
2019-05-30T07:24:56.165Z,51.72
2019-05-30T07:27:24.377Z,51.52
2019-05-30T07:29:52.606Z,51.35
2019-05-30T07:32:20.813Z,51.15
2019-05-30T07:35:05.195Z,51.37
2019-05-30T07:37:18.992Z,51.22
2019-05-30T07:39:47.218Z,50.72
2019-05-30T07:42:15.466Z,50.55
2019-05-30T07:44:43.685Z,50.34
2019-05-30T07:47:11.897Z,49.88
2019-05-30T07:49:40.104Z,49.46
2019-05-30T07:52:08.315Z,49.12
2019-05-30T07:54:36.510Z,48.82
2019-05-30T07:57:05.115Z,48.66
2019-05-30T07:59:34.541Z,48.70
2019-05-30T08:02:02.872Z,48.74
2019-05-30T08:04:32.496Z,48.69
2019-05-30T08:07:01.029Z,48.69
2019-05-30T08:09:29.334Z,48.76
2019-05-30T08:11:57.559Z,48.78
2019-05-30T08:14:26.904Z,48.86
2019-05-30T08:16:55.181Z,48.96
2019-05-30T08:19:23.401Z,49.12
2019-05-30T08:21:51.605Z,49.47
2019-05-30T08:24:19.859Z,49.80
2019-05-30T08:26:48.067Z,50.13
2019-05-30T08:29:16.293Z,50.10
2019-05-30T08:31:44.507Z,50.72
2019-05-30T08:34:12.737Z,51.43
2019-05-30T08:36:40.953Z,51.78
2019-05-30T08:39:09.173Z,51.90
2019-05-30T08:41:37.458Z,51.93
2019-05-30T08:44:05.649Z,52.20
2019-05-30T08:46:33.931Z,52.54
2019-05-30T08:49:02.135Z,53.37
2019-05-30T08:51:30.334Z,53.95
2019-05-30T08:53:58.578Z,55.04
2019-05-30T08:56:28.538Z,55.67
2019-05-30T08:58:56.712Z,56.35
2019-05-30T09:01:24.913Z,56.71
2019-05-30T09:03:53.133Z,57.52
2019-05-30T09:06:21.335Z,59.20
2019-05-30T09:08:49.745Z,60.47
2019-05-30T09:11:17.990Z,61.83
2019-05-30T09:13:46.827Z,62.57
2019-05-30T09:16:15.075Z,63.70
2019-05-30T09:18:43.271Z,64.03
2019-05-30T09:21:11.472Z,64.33
2019-05-30T09:23:40.992Z,64.70
2019-05-30T09:26:09.614Z,65.00
2019-05-30T09:28:39.028Z,65.00
2019-05-30T09:31:07.887Z,65.20
2019-05-30T09:33:36.101Z,65.17
2019-05-30T09:36:13.048Z,64.97
2019-05-30T09:38:34.266Z,64.99
2019-05-30T09:41:02.644Z,64.79
2019-05-30T09:43:30.863Z,64.63
2019-05-30T09:45:59.050Z,64.35
2019-05-30T09:48:27.261Z,64.01
2019-05-30T09:50:55.466Z,63.70
2019-05-30T09:53:23.738Z,63.44
2019-05-30T09:55:53.047Z,63.04
2019-05-30T09:58:21.435Z,62.69
2019-05-30T10:00:50.425Z,62.37
2019-05-30T10:03:18.685Z,61.94
2019-05-30T10:05:47.071Z,61.39
2019-05-30T10:08:15.690Z,61.14
2019-05-30T10:10:45.612Z,60.89
2019-05-30T10:13:14.045Z,60.94
2019-05-30T10:15:42.270Z,61.15
2019-05-30T10:18:10.460Z,61.59
2019-05-30T10:20:38.673Z,61.94
2019-05-30T10:23:06.887Z,62.33
2019-05-30T10:25:35.088Z,62.89
2019-05-30T10:28:03.322Z,63.25
2019-05-30T10:30:31.516Z,63.37
2019-05-30T10:32:59.749Z,63.40
2019-05-30T10:35:30.059Z,63.41
2019-05-30T10:37:57.920Z,63.56
2019-05-30T10:40:26.217Z,63.56
2019-05-30T10:42:55.123Z,63.54
2019-05-30T10:45:23.780Z,63.51
2019-05-30T10:47:53.510Z,63.28
2019-05-30T10:50:22.452Z,63.03
2019-05-30T10:52:51.466Z,62.85
2019-05-30T10:55:19.731Z,62.46
2019-05-30T10:57:48.620Z,62.19
2019-05-30T11:00:19.641Z,61.94
2019-05-30T11:02:49.338Z,61.67
2019-05-30T11:05:17.954Z,61.53
2019-05-30T11:08:01.268Z,61.16
2019-05-30T11:10:38.767Z,60.94
2019-05-30T11:13:08.890Z,60.70
2019-05-30T11:15:37.106Z,60.49
2019-05-30T11:18:05.481Z,60.26
2019-05-30T11:20:33.699Z,59.97
2019-05-30T11:23:01.915Z,59.60
2019-05-30T11:25:30.506Z,59.13
2019-05-30T11:27:58.968Z,58.72
2019-05-30T11:30:27.188Z,58.30
2019-05-30T11:32:55.394Z,57.81
2019-05-30T11:35:23.599Z,57.28
2019-05-30T11:37:52.987Z,56.79
2019-05-30T11:40:21.579Z,56.47
2019-05-30T11:42:49.782Z,56.24
2019-05-30T11:45:18.011Z,55.98
2019-05-30T11:47:46.247Z,55.67
2019-05-30T11:50:14.417Z,55.29
2019-05-30T11:52:42.892Z,54.90
2019-05-30T11:55:11.100Z,54.65
2019-05-30T11:57:39.301Z,54.68
2019-05-30T12:00:08.502Z,54.67
2019-05-30T12:02:36.707Z,54.71
2019-05-30T12:05:06.048Z,54.89
2019-05-30T12:07:36.862Z,55.09
2019-05-30T12:10:06.053Z,55.12
2019-05-30T12:12:34.626Z,55.20
2019-05-30T12:15:03.615Z,55.06
2019-05-30T12:17:31.828Z,55.18
2019-05-30T12:20:00.017Z,55.16
2019-05-30T12:22:28.224Z,55.31
2019-05-30T12:24:56.455Z,55.45
2019-05-30T12:27:24.675Z,55.56
2019-05-30T12:29:54.076Z,55.68
2019-05-30T12:32:22.281Z,55.90
2019-05-30T12:34:50.501Z,56.09
2019-05-30T12:37:18.824Z,57.04
2019-05-30T12:39:47.043Z,58.03
2019-05-30T12:42:15.296Z,58.24
2019-05-30T12:44:43.505Z,58.40
2019-05-30T12:47:11.707Z,58.40
2019-05-30T12:49:40.043Z,59.08
2019-05-30T12:52:08.251Z,60.41
2019-05-30T12:54:36.476Z,61.94
2019-05-30T12:57:04.700Z,62.85
2019-05-30T12:59:32.935Z,63.54
2019-05-30T13:02:01.357Z,64.18
2019-05-30T13:04:29.683Z,64.92
2019-05-30T13:06:59.253Z,65.07
2019-05-30T13:09:27.661Z,65.41
2019-05-30T13:11:56.384Z,65.82
2019-05-30T13:14:24.638Z,66.07
2019-05-30T13:16:52.877Z,66.52
2019-05-30T13:19:21.108Z,66.88
2019-05-30T13:21:53.751Z,66.92
2019-05-30T13:24:20.909Z,66.77
2019-05-30T13:26:49.218Z,66.90
2019-05-30T13:29:17.435Z,66.83
2019-05-30T13:31:45.662Z,66.84
2019-05-30T13:34:13.896Z,66.85
2019-05-30T13:36:42.171Z,66.87
2019-05-30T13:39:10.413Z,66.90
2019-05-30T13:41:40.769Z,66.92
2019-05-30T13:44:09.807Z,66.97
2019-05-30T13:46:38.090Z,66.98
2019-05-30T13:49:06.722Z,67.10
2019-05-30T13:51:35.051Z,67.36
2019-05-30T13:54:05.208Z,67.67
2019-05-30T13:56:33.733Z,67.29
2019-05-30T13:59:01.972Z,66.97
2019-05-30T14:01:30.182Z,66.66
2019-05-30T14:03:58.429Z,66.45
2019-05-30T14:06:26.655Z,66.09
2019-05-30T14:08:54.966Z,65.69
2019-05-30T14:11:23.169Z,65.28
2019-05-30T14:13:51.392Z,65.16
2019-05-30T14:16:19.650Z,65.16
2019-05-30T14:18:47.893Z,65.35
2019-05-30T14:21:16.160Z,65.63
2019-05-30T14:23:44.522Z,65.73
2019-05-30T14:26:12.773Z,65.81
2019-05-30T14:28:40.988Z,65.72
2019-05-30T14:31:09.234Z,65.64
2019-05-30T14:33:37.463Z,65.51
2019-05-30T14:36:10.159Z,65.43
2019-05-30T14:38:35.638Z,65.40
2019-05-30T14:41:04.837Z,65.49
2019-05-30T14:43:33.124Z,65.58
2019-05-30T14:46:01.343Z,65.63
2019-05-30T14:48:29.589Z,65.52
2019-05-30T14:50:57.803Z,65.54
2019-05-30T14:53:26.066Z,65.53
2019-05-30T14:55:54.249Z,65.43
2019-05-30T14:58:22.511Z,65.37
2019-05-30T15:00:51.671Z,65.35
2019-05-30T15:03:19.922Z,65.41
2019-05-30T15:05:48.209Z,65.41
2019-05-30T15:08:16.905Z,65.17
2019-05-30T15:10:45.370Z,64.88
2019-05-30T15:13:13.772Z,64.65
2019-05-30T15:15:41.983Z,64.68
2019-05-30T15:18:11.396Z,64.64
2019-05-30T15:20:39.719Z,64.81
2019-05-30T15:23:07.920Z,64.97
2019-05-30T15:25:36.170Z,65.06
2019-05-30T15:28:04.369Z,65.13
2019-05-30T15:30:32.590Z,65.11
2019-05-30T15:33:00.798Z,64.94
2019-05-30T15:35:29.000Z,64.77
2019-05-30T15:37:57.250Z,64.60
2019-05-30T15:40:25.453Z,64.29
2019-05-30T15:42:53.669Z,63.79
2019-05-30T15:45:21.896Z,62.64
2019-05-30T15:47:50.123Z,62.64
2019-05-30T15:50:19.178Z,62.32
2019-05-30T15:52:47.558Z,61.98
2019-05-30T15:55:15.763Z,61.85
2019-05-30T15:57:44.038Z,61.59
2019-05-30T16:00:14.013Z,61.22
2019-05-30T16:02:42.585Z,61.10
2019-05-30T16:05:12.343Z,60.90
2019-05-30T16:07:40.890Z,60.49
2019-05-30T16:10:10.879Z,60.25
2019-05-30T16:12:39.448Z,60.13
2019-05-30T16:15:08.880Z,59.96
2019-05-30T16:17:37.204Z,60.08
2019-05-30T16:20:06.256Z,60.32
2019-05-30T16:22:34.552Z,60.45
2019-05-30T16:25:02.846Z,60.46
2019-05-30T16:27:31.340Z,60.32
2019-05-30T16:29:59.726Z,60.40
2019-05-30T16:32:28.046Z,60.50
2019-05-30T16:34:56.311Z,60.32
2019-05-30T16:37:24.527Z,60.36
2019-05-30T16:40:05.241Z,60.44
2019-05-30T16:42:22.725Z,60.51
2019-05-30T16:44:50.975Z,60.71
2019-05-30T16:47:20.390Z,61.10
2019-05-30T16:49:48.720Z,61.10
2019-05-30T16:52:16.924Z,61.16
2019-05-30T16:54:45.158Z,61.32
2019-05-30T16:57:14.364Z,61.37
2019-05-30T16:59:42.662Z,61.45
2019-05-30T17:02:10.845Z,61.62
2019-05-30T17:04:39.068Z,61.67
2019-05-30T17:07:07.287Z,61.88
2019-05-30T17:09:35.504Z,62.05
2019-05-30T17:12:03.743Z,62.17
2019-05-30T17:14:31.960Z,62.34
2019-05-30T17:17:02.862Z,62.55
2019-05-30T17:19:30.263Z,62.83
2019-05-30T17:21:58.587Z,63.08
2019-05-30T17:24:27.269Z,63.29
2019-05-30T17:26:55.667Z,63.47
2019-05-30T17:29:23.879Z,63.59
2019-05-30T17:31:52.167Z,63.67
2019-05-30T17:34:20.432Z,63.78
2019-05-30T17:36:48.641Z,63.91
2019-05-30T17:39:16.867Z,64.00
2019-05-30T17:41:45.095Z,64.10
2019-05-30T17:44:13.922Z,64.18
2019-05-30T17:46:42.216Z,64.23
2019-05-30T17:49:10.516Z,64.36
2019-05-30T17:51:39.176Z,64.47
2019-05-30T17:54:07.787Z,64.72
2019-05-30T17:56:36.021Z,64.78
2019-05-30T17:59:04.251Z,64.58
2019-05-30T18:01:32.490Z,64.47
2019-05-30T18:04:00.706Z,64.32
2019-05-30T18:06:28.978Z,64.19
2019-05-30T18:08:57.190Z,64.12
2019-05-30T18:11:25.432Z,64.08
2019-05-30T18:13:53.716Z,63.94
2019-05-30T18:16:22.972Z,63.93
2019-05-30T18:18:51.309Z,64.00
2019-05-30T18:21:19.557Z,64.14
2019-05-30T18:23:47.784Z,64.29
2019-05-30T18:26:16.028Z,64.58
2019-05-30T18:28:44.246Z,64.86
2019-05-30T18:31:13.044Z,65.01
2019-05-30T18:33:41.336Z,65.04
2019-05-30T18:36:09.679Z,65.15
2019-05-30T18:38:38.435Z,65.61
2019-05-30T18:41:11.337Z,65.89
2019-05-30T18:43:36.621Z,66.13
2019-05-30T18:46:04.931Z,66.35
2019-05-30T18:48:33.485Z,66.61
2019-05-30T18:51:01.853Z,67.27
2019-05-30T18:53:30.410Z,68.16
2019-05-30T18:55:59.352Z,68.53
2019-05-30T18:58:28.810Z,68.74
2019-05-30T19:00:57.208Z,69.09
2019-05-30T19:03:26.482Z,69.08
2019-05-30T19:05:54.807Z,69.15
2019-05-30T19:08:23.037Z,69.18
2019-05-30T19:10:51.258Z,69.28
2019-05-30T19:13:19.517Z,69.44
2019-05-30T19:15:47.737Z,69.53
2019-05-30T19:18:15.979Z,69.46
2019-05-30T19:20:44.269Z,69.38
2019-05-30T19:23:12.504Z,69.36
2019-05-30T19:25:40.733Z,69.49
2019-05-30T19:28:09.350Z,69.51
2019-05-30T19:30:41.021Z,69.58
2019-05-30T19:33:09.976Z,69.63
2019-05-30T19:35:38.234Z,69.45
2019-05-30T19:38:06.447Z,69.34
2019-05-30T19:40:35.755Z,69.28
2019-05-30T19:43:04.286Z,69.23
2019-05-30T19:45:32.541Z,69.29
2019-05-30T19:48:00.762Z,69.47
2019-05-30T19:50:28.989Z,69.71
2019-05-30T19:52:57.273Z,69.81
2019-05-30T19:55:25.536Z,69.99
2019-05-30T19:57:53.771Z,70.02
2019-05-30T20:00:22.000Z,70.25
2019-05-30T20:02:50.550Z,70.21
2019-05-30T20:05:18.880Z,70.61
2019-05-30T20:07:47.099Z,70.75
2019-05-30T20:10:15.374Z,70.84
2019-05-30T20:12:43.607Z,70.93
2019-05-30T20:15:12.269Z,71.19
2019-05-30T20:17:41.808Z,71.25
2019-05-30T20:20:10.364Z,71.42
2019-05-30T20:22:40.189Z,71.67
2019-05-30T20:25:09.199Z,71.71
2019-05-30T20:27:38.818Z,71.86
2019-05-30T20:30:07.926Z,72.03
2019-05-30T20:32:36.493Z,72.01
2019-05-30T20:35:06.255Z,72.05
2019-05-30T20:37:34.651Z,72.15
2019-05-30T20:40:03.074Z,72.20
2019-05-30T20:42:31.521Z,72.40
2019-05-30T20:44:59.764Z,72.62
2019-05-30T20:47:27.986Z,72.88
2019-05-30T20:49:56.252Z,72.87
2019-05-30T20:52:24.506Z,72.91
2019-05-30T20:54:52.747Z,73.06
2019-05-30T20:57:21.215Z,73.44
2019-05-30T20:59:49.430Z,73.42
2019-05-30T21:02:17.659Z,73.41
2019-05-30T21:04:47.130Z,73.43
2019-05-30T21:07:15.979Z,73.68
2019-05-30T21:09:44.382Z,73.76
2019-05-30T21:12:13.598Z,73.95
2019-05-30T21:14:41.821Z,74.08
2019-05-30T21:17:10.055Z,74.16
2019-05-30T21:19:38.312Z,74.37
2019-05-30T21:22:06.561Z,74.30
2019-05-30T21:24:36.348Z,74.15
2019-05-30T21:27:04.666Z,74.15
2019-05-30T21:29:32.875Z,74.31
2019-05-30T21:32:01.097Z,74.42
2019-05-30T21:34:29.328Z,74.72
2019-05-30T21:36:57.670Z,74.82
2019-05-30T21:39:25.830Z,74.99
2019-05-30T21:41:54.036Z,75.24
2019-05-30T21:44:22.273Z,75.34
2019-05-30T21:46:50.534Z,75.15
2019-05-30T21:49:18.754Z,75.00
2019-05-30T21:51:47.537Z,75.12
2019-05-30T21:54:15.786Z,74.95
2019-05-30T21:56:44.112Z,75.29
2019-05-30T21:59:12.297Z,75.40
2019-05-30T22:01:40.791Z,75.43
2019-05-30T22:04:09.156Z,75.48
2019-05-30T22:06:37.414Z,75.57
2019-05-30T22:09:07.374Z,75.59
2019-05-30T22:11:35.602Z,75.61
2019-05-30T22:14:03.836Z,75.67
2019-05-30T22:16:32.056Z,75.60
2019-05-30T22:19:00.320Z,75.71
2019-05-30T22:21:28.547Z,75.58
2019-05-30T22:23:56.874Z,75.65
2019-05-30T22:26:25.120Z,75.62
2019-05-30T22:28:53.346Z,75.72
2019-05-30T22:31:21.612Z,75.65
2019-05-30T22:33:51.621Z,75.61
2019-05-30T22:36:21.058Z,75.61
2019-05-30T22:38:49.290Z,75.61
2019-05-30T22:41:17.535Z,75.73
2019-05-30T22:43:46.287Z,75.70
2019-05-30T22:46:14.640Z,75.56
2019-05-30T22:48:42.901Z,75.49
2019-05-30T22:51:11.096Z,75.43
2019-05-30T22:53:39.502Z,75.62
2019-05-30T22:56:07.937Z,75.70
2019-05-30T22:58:36.195Z,75.68
2019-05-30T23:01:04.485Z,75.62
2019-05-30T23:03:32.721Z,75.63
2019-05-30T23:06:01.024Z,75.64
2019-05-30T23:08:29.250Z,75.70
2019-05-30T23:10:57.598Z,75.72
2019-05-30T23:13:39.795Z,75.84
2019-05-30T23:15:56.319Z,75.79
2019-05-30T23:18:24.665Z,75.86
2019-05-30T23:20:52.974Z,75.95
2019-05-30T23:23:21.196Z,75.88
2019-05-30T23:25:49.412Z,75.93
2019-05-30T23:28:17.726Z,75.95
2019-05-30T23:30:46.010Z,75.97
2019-05-30T23:33:14.244Z,76.11
2019-05-30T23:35:42.464Z,76.20
2019-05-30T23:38:10.708Z,76.35
2019-05-30T23:40:38.918Z,76.45
2019-05-30T23:43:07.148Z,76.62
2019-05-30T23:45:35.371Z,76.63
2019-05-30T23:48:03.583Z,76.71
2019-05-30T23:50:31.818Z,76.91
2019-05-30T23:53:00.416Z,76.98
2019-05-30T23:55:28.851Z,77.02
2019-05-30T23:57:57.076Z,77.21
